createdAt,value
2023-08-17T00:00:41.318Z,96369.44
2023-08-17T00:04:53.819Z,96360.28
2023-08-17T00:09:06.504Z,96361.53
2023-08-17T00:13:18.986Z,96370.44
2023-08-17T00:17:32.159Z,96353.69
2023-08-17T00:21:46.725Z,96353.94
2023-08-17T00:25:59.350Z,96355.22
2023-08-17T00:30:12.604Z,96369.19
2023-08-17T00:34:25.121Z,96362.59
2023-08-17T00:38:37.578Z,96361.03
2023-08-17T00:42:51.418Z,96355.69
2023-08-17T00:47:04.062Z,96373.72
2023-08-17T00:51:17.693Z,96375.72
2023-08-17T00:55:30.481Z,96377.28
2023-08-17T00:59:47.044Z,96370.97
2023-08-17T01:04:04.588Z,96354.44
2023-08-17T01:08:17.153Z,96366.41
2023-08-17T01:13:13.639Z,96369.94
2023-08-17T01:17:56.496Z,96361.53
2023-08-17T01:22:13.278Z,96356.44
2023-08-17T01:26:25.798Z,96374.50
2023-08-17T01:31:05.030Z,96376.81
2023-08-17T01:35:27.445Z,96367.41
2023-08-17T01:39:46.593Z,96364.09
2023-08-17T01:44:01.360Z,96365.13
2023-08-17T01:48:13.968Z,96348.81
2023-08-17T01:52:29.785Z,96358.47
2023-08-17T01:56:42.311Z,96346.00
2023-08-17T02:00:55.057Z,96345.72
2023-08-17T02:05:07.947Z,96345.47
2023-08-17T02:09:20.471Z,96341.66
2023-08-17T02:13:33.033Z,96340.91
2023-08-17T02:17:45.539Z,96334.03
2023-08-17T02:21:58.128Z,96335.81
2023-08-17T02:26:10.688Z,96343.69
2023-08-17T02:30:23.168Z,96331.50
2023-08-17T02:34:35.717Z,96338.94
2023-08-17T02:38:48.231Z,96339.16
2023-08-17T02:43:00.794Z,96336.84
2023-08-17T02:47:13.358Z,96334.31
2023-08-17T02:51:25.886Z,96345.22
2023-08-17T02:55:38.429Z,96341.41
2023-08-17T02:59:50.891Z,96337.84
2023-08-17T03:04:03.415Z,96336.34
2023-08-17T03:08:16.313Z,96347.75
2023-08-17T03:12:28.794Z,96335.81
2023-08-17T03:16:41.418Z,96340.09
2023-08-17T03:20:53.971Z,96343.63
2023-08-17T03:25:07.402Z,96344.91
2023-08-17T03:29:20.001Z,96349.72
2023-08-17T03:33:34.256Z,96344.88
2023-08-17T03:37:47.314Z,96344.09
2023-08-17T03:41:59.818Z,96338.25
2023-08-17T03:46:12.401Z,96350.91
2023-08-17T03:50:29.919Z,96355.19
2023-08-17T03:54:42.432Z,96341.44
2023-08-17T03:58:55.912Z,96351.06
2023-08-17T04:03:09.168Z,96354.34
2023-08-17T04:07:25.711Z,96371.88
2023-08-17T04:11:38.838Z,96369.34
2023-08-17T04:15:51.329Z,96372.63
2023-08-17T04:20:03.838Z,96372.63
2023-08-17T04:24:16.564Z,96381.00
2023-08-17T04:28:29.104Z,96382.59
2023-08-17T04:32:41.697Z,96386.69
2023-08-17T04:36:54.175Z,96383.19
2023-08-17T04:41:06.692Z,96386.75
2023-08-17T04:45:19.327Z,96382.44
2023-08-17T04:49:31.837Z,96390.31
2023-08-17T04:53:44.365Z,96381.72
2023-08-17T04:57:57.023Z,96375.66
2023-08-17T05:02:09.664Z,96377.44
2023-08-17T05:06:22.214Z,96384.34
2023-08-17T05:10:34.746Z,96384.09
2023-08-17T05:14:47.229Z,96387.16
2023-08-17T05:19:01.350Z,96386.16
2023-08-17T05:23:13.826Z,96396.13
2023-08-17T05:27:26.560Z,96392.81
2023-08-17T05:31:41.957Z,96387.97
2023-08-17T05:35:57.723Z,96372.72
2023-08-17T05:40:13.500Z,96390.47
2023-08-17T05:44:26.015Z,96390.72
2023-08-17T05:48:38.574Z,96384.22
2023-08-17T05:52:51.083Z,96366.66
2023-08-17T05:57:05.342Z,96382.81
2023-08-17T06:01:17.888Z,96382.00
2023-08-17T06:05:30.642Z,96378.38
2023-08-17T06:09:43.208Z,96378.06
2023-08-17T06:13:55.784Z,96388.19
2023-08-17T06:18:08.388Z,96389.97
2023-08-17T06:22:20.962Z,96396.25
2023-08-17T06:26:33.493Z,96382.31
2023-08-17T06:30:46.108Z,96385.56
2023-08-17T06:34:59.203Z,96387.56
2023-08-17T06:39:11.863Z,96376.34
2023-08-17T06:43:24.822Z,96369.41
2023-08-17T06:47:37.411Z,96369.94
2023-08-17T06:51:50.113Z,96368.66
2023-08-17T06:56:03.408Z,96369.75
2023-08-17T07:00:16.397Z,96376.94
2023-08-17T07:04:28.938Z,96383.28
2023-08-17T07:08:41.502Z,96370.38
2023-08-17T07:12:55.005Z,96378.78
2023-08-17T07:17:07.547Z,96376.38
2023-08-17T07:21:20.033Z,96378.44
2023-08-17T07:25:32.648Z,96371.84
2023-08-17T07:29:45.238Z,96379.66
2023-08-17T07:33:57.760Z,96372.97
2023-08-17T07:38:10.676Z,96376.97
2023-08-17T07:42:24.833Z,96382.06
2023-08-17T07:46:40.023Z,96373.63
2023-08-17T07:50:54.526Z,96382.16
2023-08-17T07:55:07.186Z,96375.28
2023-08-17T07:59:19.644Z,96383.75
2023-08-17T08:03:32.152Z,96377.47
2023-08-17T08:07:44.676Z,96372.00
2023-08-17T08:11:57.270Z,96370.81
2023-08-17T08:16:09.861Z,96362.97
2023-08-17T08:20:23.404Z,96367.84
2023-08-17T08:24:38.330Z,96368.53
2023-08-17T08:28:52.019Z,96367.22
2023-08-17T08:33:04.796Z,96377.34
2023-08-17T08:37:17.650Z,96372.28
2023-08-17T08:41:31.727Z,96371.06
2023-08-17T08:45:46.405Z,96365.47
2023-08-17T08:50:04.513Z,96369.06
2023-08-17T08:54:26.264Z,96368.59
2023-08-17T08:58:40.981Z,96369.13
2023-08-17T09:02:55.337Z,96375.59
2023-08-17T09:07:10.364Z,96364.56
2023-08-17T09:11:23.632Z,96361.50
2023-08-17T09:15:37.057Z,96358.91
2023-08-17T09:19:50.672Z,96358.63
2023-08-17T09:24:03.809Z,96352.78
2023-08-17T09:28:19.362Z,96354.03
2023-08-17T09:32:33.904Z,96355.13
2023-08-17T09:36:49.822Z,96353.50
2023-08-17T09:41:02.968Z,96356.06
2023-08-17T09:45:20.016Z,96348.84
2023-08-17T09:49:36.633Z,96347.00
2023-08-17T09:54:00.033Z,96353.50
2023-08-17T09:58:17.414Z,96345.94
2023-08-17T10:02:32.270Z,96346.22
2023-08-17T10:06:45.701Z,96351.66
2023-08-17T10:11:00.541Z,96343.19
2023-08-17T10:15:20.163Z,96343.13
2023-08-17T10:19:57.191Z,96346.97
2023-08-17T10:24:10.934Z,96342.44
2023-08-17T10:28:27.336Z,96341.59
2023-08-17T10:32:46.908Z,96338.56
2023-08-17T10:37:01.959Z,96340.44
2023-08-17T10:41:18.610Z,96334.91
2023-08-17T10:45:40.790Z,96331.75
2023-08-17T10:49:58.462Z,96333.34
2023-08-17T10:54:11.570Z,96324.22
2023-08-17T10:58:24.792Z,96323.63
2023-08-17T11:02:39.380Z,96321.69
2023-08-17T11:07:05.734Z,96327.94
2023-08-17T11:11:19.138Z,96321.75
2023-08-17T11:15:44.347Z,96327.47
2023-08-17T11:19:57.509Z,96321.41
2023-08-17T11:24:12.905Z,96317.03
2023-08-17T11:28:26.777Z,96300.75
2023-08-17T11:32:41.294Z,96298.09
2023-08-17T11:36:54.501Z,96304.84
2023-08-17T11:41:17.968Z,96298.06
2023-08-17T11:45:32.284Z,96298.50
2023-08-17T11:49:47.211Z,96289.00
2023-08-17T11:54:06.766Z,96289.22
2023-08-17T11:58:19.850Z,96277.06
2023-08-17T12:02:33.430Z,96283.94
2023-08-17T12:06:47.705Z,96279.75
2023-08-17T12:11:00.920Z,96274.31
2023-08-17T12:15:14.096Z,96280.25
2023-08-17T12:19:27.718Z,96277.81
2023-08-17T12:23:41.986Z,96268.38
2023-08-17T12:27:55.228Z,96262.78
2023-08-17T12:32:09.884Z,96241.47
2023-08-17T12:36:24.450Z,96239.31
2023-08-17T12:40:37.615Z,96233.94
2023-08-17T12:44:51.516Z,96235.19
2023-08-17T12:49:04.917Z,96228.53
2023-08-17T12:53:18.016Z,96225.50
2023-08-17T12:57:31.186Z,96218.06
2023-08-17T13:01:44.430Z,96222.22
2023-08-17T13:05:57.916Z,96212.00
2023-08-17T13:10:11.193Z,96215.81
2023-08-17T13:14:26.992Z,96205.63
2023-08-17T13:18:40.278Z,96198.59
2023-08-17T13:22:53.466Z,96204.31
2023-08-17T13:27:06.743Z,96208.50
2023-08-17T13:31:24.901Z,96209.34
2023-08-17T13:35:38.322Z,96195.38
2023-08-17T13:39:51.381Z,96194.41
2023-08-17T13:44:04.632Z,96188.16
2023-08-17T13:48:17.900Z,96188.47
2023-08-17T13:52:31.181Z,96186.47
2023-08-17T13:56:44.367Z,96180.06
2023-08-17T14:00:57.510Z,96185.09
2023-08-17T14:05:10.779Z,96170.06
2023-08-17T14:09:24.001Z,96173.97
2023-08-17T14:13:38.219Z,96174.25
2023-08-17T14:17:51.376Z,96162.16
2023-08-17T14:22:05.070Z,96153.72
2023-08-17T14:26:18.168Z,96136.47
2023-08-17T14:30:30.666Z,96135.66
2023-08-17T14:34:43.157Z,96125.19
2023-08-17T14:38:56.351Z,96132.16
2023-08-17T14:43:11.318Z,96130.13
2023-08-17T14:47:24.953Z,96130.78
2023-08-17T14:51:42.900Z,96134.97
2023-08-17T14:55:56.141Z,96126.53
2023-08-17T15:00:16.628Z,96131.78
2023-08-17T15:04:30.107Z,96127.66
2023-08-17T15:08:43.311Z,96131.16
2023-08-17T15:12:56.494Z,96139.31
2023-08-17T15:17:14.166Z,96148.53
2023-08-17T15:21:27.374Z,96156.09
2023-08-17T15:25:40.506Z,96163.78
2023-08-17T15:29:53.626Z,96171.69
2023-08-17T15:34:06.928Z,96164.81
2023-08-17T15:38:19.964Z,96175.13
2023-08-17T15:42:33.023Z,96176.84
2023-08-17T15:46:46.693Z,96187.78
2023-08-17T15:50:59.349Z,96175.38
2023-08-17T15:55:13.195Z,96170.03
2023-08-17T15:59:26.343Z,96162.44
2023-08-17T16:03:39.705Z,96160.28
2023-08-17T16:07:52.860Z,96153.09
2023-08-17T16:12:06.360Z,96158.59
2023-08-17T16:16:18.892Z,96165.81
2023-08-17T16:20:35.309Z,96157.84
2023-08-17T16:24:47.816Z,96166.81
2023-08-17T16:29:01.009Z,96164.81
2023-08-17T16:33:16.421Z,96167.16
2023-08-17T16:37:29.117Z,96170.13
2023-08-17T16:41:42.272Z,96222.84
2023-08-17T16:45:54.805Z,96238.28
2023-08-17T16:50:07.700Z,96246.78
2023-08-17T16:54:20.258Z,96263.41
2023-08-17T16:58:32.798Z,96276.34
2023-08-17T17:02:45.346Z,96281.81
2023-08-17T17:06:58.324Z,96306.28
2023-08-17T17:11:10.983Z,96317.44
2023-08-17T17:15:24.207Z,96325.84
2023-08-17T17:19:36.951Z,96331.97
2023-08-17T17:23:49.443Z,96332.53
2023-08-17T17:28:01.988Z,96343.16
2023-08-17T17:32:14.469Z,96342.09
2023-08-17T17:36:26.983Z,96341.06
2023-08-17T17:40:39.508Z,96338.28
2023-08-17T17:44:52.060Z,96347.63
2023-08-17T17:49:04.563Z,96356.84
2023-08-17T17:53:17.094Z,96354.38
2023-08-17T17:57:29.864Z,96370.25
2023-08-17T18:01:42.909Z,96375.75
2023-08-17T18:05:55.402Z,96411.06
2023-08-17T18:10:09.518Z,96449.00
2023-08-17T18:14:22.002Z,96445.19
2023-08-17T18:18:38.604Z,96441.94
2023-08-17T18:22:52.096Z,96444.53
2023-08-17T18:27:04.701Z,96454.09
2023-08-17T18:31:17.663Z,96464.13
2023-08-17T18:35:30.203Z,96473.38
2023-08-17T18:39:42.790Z,96485.03
2023-08-17T18:43:56.105Z,96495.88
2023-08-17T18:48:08.643Z,96489.91
2023-08-17T18:52:21.170Z,96494.06
2023-08-17T18:56:34.286Z,96494.66
2023-08-17T19:00:46.834Z,96501.19
2023-08-17T19:05:01.366Z,96497.44
2023-08-17T19:09:14.033Z,96505.94
2023-08-17T19:13:26.561Z,96495.81
2023-08-17T19:17:40.006Z,96485.91
2023-08-17T19:21:52.868Z,96488.16
2023-08-17T19:26:06.973Z,96488.56
2023-08-17T19:30:20.159Z,96480.06
2023-08-17T19:34:32.660Z,96456.63
2023-08-17T19:38:45.121Z,96458.56
2023-08-17T19:42:59.928Z,96457.00
2023-08-17T19:47:18.978Z,96457.03
2023-08-17T19:51:32.077Z,96458.69
2023-08-17T19:55:44.633Z,96467.47
2023-08-17T19:59:57.551Z,96473.78
2023-08-17T20:04:12.688Z,96487.44
2023-08-17T20:08:25.624Z,96493.69
2023-08-17T20:12:38.167Z,96487.66
2023-08-17T20:16:50.808Z,96475.38
2023-08-17T20:21:05.051Z,96476.94
2023-08-17T20:25:17.712Z,96470.00
2023-08-17T20:29:30.934Z,96467.19
2023-08-17T20:33:44.071Z,96468.16
2023-08-17T20:37:56.664Z,96487.22
2023-08-17T20:42:10.536Z,96509.56
2023-08-17T20:46:23.127Z,96519.84
2023-08-17T20:50:44.053Z,96530.72
2023-08-17T20:54:57.563Z,96551.75
2023-08-17T20:59:10.133Z,96543.09
2023-08-17T21:03:22.681Z,96558.94
2023-08-17T21:07:35.834Z,96553.50
2023-08-17T21:11:48.844Z,96542.09
2023-08-17T21:16:09.221Z,96539.28
2023-08-17T21:20:22.836Z,96521.53
2023-08-17T21:24:35.377Z,96528.78
2023-08-17T21:28:48.286Z,96524.72
2023-08-17T21:33:00.821Z,96526.13
2023-08-17T21:37:29.301Z,96530.50
2023-08-17T21:41:41.984Z,96537.06
2023-08-17T21:45:58.803Z,96532.28
2023-08-17T21:50:11.955Z,96506.53
2023-08-17T21:54:24.502Z,96514.94
2023-08-17T21:58:37.004Z,96504.34
2023-08-17T22:02:49.574Z,96502.63
2023-08-17T22:07:04.226Z,96505.44
2023-08-17T22:11:16.708Z,96494.75
2023-08-17T22:15:29.313Z,96517.38
2023-08-17T22:19:42.302Z,96505.44
2023-08-17T22:23:54.803Z,96503.88
2023-08-17T22:28:08.132Z,96512.78
2023-08-17T22:32:20.729Z,96518.38
2023-08-17T22:36:33.214Z,96513.31
2023-08-17T22:40:45.788Z,96524.50
2023-08-17T22:44:58.272Z,96526.53
2023-08-17T22:49:10.750Z,96521.22
2023-08-17T22:53:23.901Z,96523.75
2023-08-17T22:57:36.892Z,96517.88
2023-08-17T23:01:49.638Z,96523.75
2023-08-17T23:06:03.618Z,96508.22
2023-08-17T23:10:16.114Z,96501.09
2023-08-17T23:14:28.608Z,96491.19
2023-08-17T23:18:41.090Z,96487.13
2023-08-17T23:22:54.062Z,96489.41
2023-08-17T23:27:07.807Z,96477.44
2023-08-17T23:31:20.360Z,96467.03
2023-08-17T23:35:34.998Z,96462.72
2023-08-17T23:39:47.507Z,96467.53
2023-08-17T23:43:59.999Z,96473.38
2023-08-17T23:48:13.531Z,96470.34
2023-08-17T23:52:26.175Z,96460.94
2023-08-17T23:56:39.102Z,96461.19
